createdAt,value
2023-01-19T00:00:27.842Z,10.60
2023-01-19T00:01:27.965Z,10.60
2023-01-19T00:02:28.162Z,10.60
2023-01-19T00:03:28.297Z,10.50
2023-01-19T00:04:28.456Z,10.80
2023-01-19T00:05:28.633Z,10.80
2023-01-19T00:06:28.929Z,10.60
2023-01-19T00:07:28.957Z,10.40
2023-01-19T00:08:29.119Z,10.60
2023-01-19T00:09:29.299Z,9.80
2023-01-19T00:10:29.459Z,10.00
2023-01-19T00:11:29.658Z,10.00
2023-01-19T00:12:29.821Z,10.00
2023-01-19T00:13:29.984Z,10.10
2023-01-19T00:14:30.151Z,9.60
2023-01-19T00:15:30.334Z,10.10
2023-01-19T00:16:30.535Z,9.70
2023-01-19T00:17:30.656Z,10.40
2023-01-19T00:18:30.826Z,9.90
2023-01-19T00:19:31.023Z,10.30
2023-01-19T00:20:31.189Z,9.90
2023-01-19T00:21:31.383Z,10.20
2023-01-19T00:22:31.529Z,9.90
2023-01-19T00:23:31.703Z,9.80
2023-01-19T00:24:31.879Z,10.60
2023-01-19T00:25:32.048Z,9.20
2023-01-19T00:26:32.266Z,9.70
2023-01-19T00:27:32.411Z,9.50
2023-01-19T00:28:32.601Z,9.90
2023-01-19T00:29:32.737Z,9.40
2023-01-19T00:30:32.935Z,10.00
2023-01-19T00:31:33.175Z,9.20
2023-01-19T00:32:33.291Z,9.40
2023-01-19T00:33:33.475Z,9.70
2023-01-19T00:34:33.659Z,9.50
2023-01-19T00:35:33.818Z,9.40
2023-01-19T00:36:34.001Z,9.70
2023-01-19T00:37:34.150Z,10.00
2023-01-19T00:38:34.322Z,9.30
2023-01-19T00:39:34.563Z,9.70
2023-01-19T00:40:34.677Z,9.50
2023-01-19T00:41:34.868Z,9.90
2023-01-19T00:42:35.025Z,9.80
2023-01-19T00:43:35.216Z,9.00
2023-01-19T00:44:35.375Z,10.00
2023-01-19T00:45:35.574Z,9.80
2023-01-19T00:46:35.702Z,9.80
2023-01-19T00:47:35.889Z,10.10
2023-01-19T00:48:36.081Z,10.20
2023-01-19T00:49:36.222Z,10.50
2023-01-19T00:50:36.430Z,9.80
2023-01-19T00:51:36.557Z,10.30
2023-01-19T00:52:36.733Z,10.10
2023-01-19T00:53:36.895Z,9.50
2023-01-19T00:54:37.083Z,10.00
2023-01-19T00:55:37.243Z,9.80
2023-01-19T00:56:37.427Z,9.90
2023-01-19T00:57:37.602Z,9.70
2023-01-19T00:58:37.795Z,10.00
2023-01-19T00:59:37.992Z,10.30
2023-01-19T01:00:38.142Z,10.00
2023-01-19T01:01:45.085Z,10.20
2023-01-19T01:02:39.595Z,10.30
2023-01-19T01:03:38.659Z,10.20
2023-01-19T01:04:38.838Z,9.80
2023-01-19T01:05:38.997Z,9.80
2023-01-19T01:06:39.147Z,10.00
2023-01-19T01:07:39.313Z,10.10
2023-01-19T01:08:39.495Z,10.40
2023-01-19T01:09:39.665Z,10.00
2023-01-19T01:10:39.832Z,9.80
2023-01-19T01:11:40.005Z,9.80
2023-01-19T01:12:40.233Z,10.00
2023-01-19T01:13:40.349Z,9.90
2023-01-19T01:14:40.536Z,9.70
2023-01-19T01:15:40.679Z,9.50
2023-01-19T01:16:40.951Z,9.20
2023-01-19T01:17:41.051Z,10.10
2023-01-19T01:18:41.221Z,9.90
2023-01-19T01:19:41.405Z,10.20
2023-01-19T01:20:41.553Z,9.70
2023-01-19T01:21:41.716Z,9.50
2023-01-19T01:22:41.906Z,9.80
2023-01-19T01:23:42.058Z,10.70
2023-01-19T01:24:42.234Z,9.90
2023-01-19T01:25:42.389Z,9.50
2023-01-19T01:26:42.584Z,10.10
2023-01-19T01:27:42.741Z,9.80
2023-01-19T01:28:42.951Z,9.40
2023-01-19T01:29:43.100Z,9.70
2023-01-19T01:30:43.271Z,10.30
2023-01-19T01:31:43.500Z,9.80
2023-01-19T01:32:43.620Z,10.20
2023-01-19T01:33:43.785Z,9.40
2023-01-19T01:34:43.950Z,10.00
2023-01-19T01:35:44.092Z,9.70
2023-01-19T01:36:44.298Z,9.80
2023-01-19T01:37:44.491Z,9.80
2023-01-19T01:38:44.661Z,9.80
2023-01-19T01:39:44.816Z,9.60
2023-01-19T01:40:45.013Z,10.40
2023-01-19T01:41:45.136Z,10.30
2023-01-19T01:42:45.307Z,9.80
2023-01-19T01:43:45.513Z,9.90
2023-01-19T01:44:45.657Z,9.70
2023-01-19T01:45:45.882Z,9.90
2023-01-19T01:46:46.009Z,9.60
2023-01-19T01:47:46.192Z,9.90
2023-01-19T01:48:46.427Z,9.90
2023-01-19T01:49:46.568Z,9.10
2023-01-19T01:50:46.721Z,10.00
2023-01-19T01:51:46.900Z,10.20
2023-01-19T01:53:06.725Z,9.50
2023-01-19T01:53:48.251Z,10.00
2023-01-19T01:54:47.389Z,9.60
2023-01-19T01:55:47.579Z,9.90
2023-01-19T01:56:47.743Z,9.90
2023-01-19T01:57:47.897Z,10.00
2023-01-19T01:58:48.089Z,9.90
2023-01-19T01:59:48.246Z,10.00
2023-01-19T02:00:48.494Z,9.90
2023-01-19T02:01:48.714Z,9.80
2023-01-19T02:02:48.738Z,10.10
2023-01-19T02:03:48.943Z,10.00
2023-01-19T02:04:49.104Z,9.60
2023-01-19T02:05:49.307Z,9.90
2023-01-19T02:06:49.457Z,10.40
2023-01-19T02:07:49.636Z,9.80
2023-01-19T02:08:49.781Z,10.30
2023-01-19T02:09:49.943Z,10.10
2023-01-19T02:10:50.131Z,9.90
2023-01-19T02:11:50.268Z,9.50
2023-01-19T02:12:50.466Z,9.60
2023-01-19T02:13:50.683Z,8.90
2023-01-19T02:14:50.844Z,9.40
2023-01-19T02:15:51.006Z,10.90
2023-01-19T02:16:51.231Z,9.00
2023-01-19T02:17:51.335Z,9.90
2023-01-19T02:18:51.516Z,9.90
2023-01-19T02:19:51.656Z,9.70
2023-01-19T02:20:51.814Z,9.10
2023-01-19T02:21:51.992Z,10.00
2023-01-19T02:22:52.164Z,9.80
2023-01-19T02:23:52.366Z,9.60
2023-01-19T02:24:52.520Z,9.90
2023-01-19T02:25:52.709Z,9.20
2023-01-19T02:26:52.864Z,9.90
2023-01-19T02:27:53.055Z,9.70
2023-01-19T02:28:53.206Z,9.60
2023-01-19T02:29:53.404Z,9.70
2023-01-19T02:30:53.672Z,8.80
2023-01-19T02:31:53.774Z,9.90
2023-01-19T02:32:53.906Z,9.60
2023-01-19T02:33:54.091Z,9.10
2023-01-19T02:34:54.269Z,9.00
2023-01-19T02:35:54.435Z,10.00
2023-01-19T02:36:54.655Z,9.60
2023-01-19T02:37:54.764Z,9.20
2023-01-19T02:38:54.936Z,9.30
2023-01-19T02:39:55.132Z,9.60
2023-01-19T02:40:55.290Z,9.60
2023-01-19T02:41:55.453Z,8.90
2023-01-19T02:42:55.596Z,9.40
2023-01-19T02:43:55.787Z,8.90
2023-01-19T02:44:55.970Z,9.70
2023-01-19T02:45:56.228Z,9.50
2023-01-19T02:46:56.331Z,9.50
2023-01-19T02:47:56.478Z,9.50
2023-01-19T02:48:56.678Z,10.00
2023-01-19T02:49:56.846Z,9.90
2023-01-19T02:50:57.058Z,10.20
2023-01-19T02:51:57.212Z,9.30
2023-01-19T02:52:57.561Z,9.80
2023-01-19T02:53:57.580Z,9.90
2023-01-19T02:54:57.759Z,10.30
2023-01-19T02:55:57.996Z,9.60
2023-01-19T02:56:58.108Z,9.90
2023-01-19T02:57:58.295Z,10.20
2023-01-19T02:58:58.456Z,10.40
2023-01-19T02:59:58.634Z,10.60
2023-01-19T03:00:59.011Z,9.60
2023-01-19T03:01:59.001Z,9.80
2023-01-19T03:02:59.604Z,10.50
2023-01-19T03:03:59.300Z,10.10
2023-01-19T03:04:59.472Z,9.70
2023-01-19T03:05:59.659Z,10.10
2023-01-19T03:06:59.820Z,10.30
2023-01-19T03:07:59.989Z,10.50
2023-01-19T03:09:00.174Z,10.60
2023-01-19T03:10:00.333Z,9.90
2023-01-19T03:11:00.548Z,10.10
2023-01-19T03:12:00.704Z,10.30
2023-01-19T03:13:01.147Z,10.10
2023-01-19T03:14:01.974Z,10.60
2023-01-19T03:15:01.246Z,9.80
2023-01-19T03:16:01.386Z,9.90
2023-01-19T03:17:01.591Z,10.30
2023-01-19T03:18:01.724Z,10.00
2023-01-19T03:19:01.920Z,10.30
2023-01-19T03:20:02.076Z,10.20
2023-01-19T03:21:02.263Z,10.10
2023-01-19T03:22:02.419Z,10.40
2023-01-19T03:23:03.069Z,10.90
2023-01-19T03:24:02.766Z,10.00
2023-01-19T03:25:03.012Z,10.20
2023-01-19T03:26:03.102Z,10.70
2023-01-19T03:27:03.266Z,10.50
2023-01-19T03:28:03.435Z,10.40
2023-01-19T03:29:03.601Z,10.60
2023-01-19T03:30:03.774Z,10.80
2023-01-19T03:31:03.958Z,9.80
2023-01-19T03:32:04.121Z,10.80
2023-01-19T03:33:04.303Z,10.10
2023-01-19T03:34:04.505Z,10.40
2023-01-19T03:35:04.639Z,10.10
2023-01-19T03:36:04.808Z,10.30
2023-01-19T03:37:04.975Z,10.70
2023-01-19T03:38:05.170Z,10.60
2023-01-19T03:39:05.334Z,10.80
2023-01-19T03:40:05.492Z,10.40
2023-01-19T03:41:05.663Z,10.40
2023-01-19T03:42:05.831Z,10.00
2023-01-19T03:43:06.009Z,10.50
2023-01-19T03:44:06.181Z,10.40
2023-01-19T03:45:06.341Z,10.40
2023-01-19T03:46:06.531Z,10.70
2023-01-19T03:47:06.683Z,10.80
2023-01-19T03:48:06.842Z,10.30
2023-01-19T03:49:07.012Z,10.60
2023-01-19T03:50:07.190Z,10.60
2023-01-19T03:51:07.381Z,10.50
2023-01-19T03:52:07.570Z,10.80
2023-01-19T03:53:07.705Z,10.70
2023-01-19T03:54:07.867Z,10.90
2023-01-19T03:55:08.040Z,10.60
2023-01-19T03:56:08.209Z,10.70
2023-01-19T03:57:08.429Z,11.30
2023-01-19T03:58:08.568Z,10.70
2023-01-19T03:59:08.728Z,10.70
2023-01-19T04:00:08.894Z,11.10
2023-01-19T04:01:09.131Z,10.20
2023-01-19T04:02:09.326Z,11.40
2023-01-19T04:03:09.426Z,10.50
2023-01-19T04:04:09.563Z,10.90
2023-01-19T04:05:09.744Z,10.40
2023-01-19T04:06:09.904Z,10.60
2023-01-19T04:07:10.088Z,10.90
2023-01-19T04:08:10.256Z,10.80
2023-01-19T04:09:10.415Z,11.30
2023-01-19T04:10:10.587Z,11.50
2023-01-19T04:11:10.748Z,11.20
2023-01-19T04:12:10.921Z,10.60
2023-01-19T04:13:11.159Z,11.70
2023-01-19T04:14:11.275Z,11.20
2023-01-19T04:15:11.446Z,11.10
2023-01-19T04:16:11.620Z,11.20
2023-01-19T04:17:11.794Z,11.10
2023-01-19T04:18:11.965Z,11.70
2023-01-19T04:19:12.139Z,11.10
2023-01-19T04:20:12.293Z,11.00
2023-01-19T04:21:12.486Z,11.60
2023-01-19T04:22:12.653Z,11.20
2023-01-19T04:23:12.823Z,11.30
2023-01-19T04:24:12.984Z,11.60
2023-01-19T04:25:13.166Z,11.40
2023-01-19T04:26:13.324Z,11.30
2023-01-19T04:27:13.517Z,10.70
2023-01-19T04:28:13.696Z,11.00
2023-01-19T04:29:13.878Z,11.40
2023-01-19T04:30:14.038Z,11.20
2023-01-19T04:31:14.250Z,11.50
2023-01-19T04:32:14.395Z,11.20
2023-01-19T04:33:14.558Z,11.10
2023-01-19T04:34:14.720Z,12.30
2023-01-19T04:35:14.899Z,11.90
2023-01-19T04:36:15.070Z,11.50
2023-01-19T04:37:15.262Z,10.90
2023-01-19T04:38:15.421Z,11.70
2023-01-19T04:39:15.586Z,11.30
2023-01-19T04:40:15.756Z,10.80
2023-01-19T04:41:15.941Z,12.00
2023-01-19T04:42:16.131Z,11.40
2023-01-19T04:43:16.266Z,11.90
2023-01-19T04:44:16.495Z,11.30
2023-01-19T04:45:16.621Z,12.10
2023-01-19T04:46:16.814Z,12.00
2023-01-19T04:47:16.967Z,11.60
2023-01-19T04:48:17.160Z,11.70
2023-01-19T04:49:17.289Z,12.10
2023-01-19T04:50:17.472Z,12.00
2023-01-19T04:51:17.629Z,11.70
2023-01-19T04:52:17.825Z,11.50
2023-01-19T04:53:17.965Z,11.70
2023-01-19T04:54:18.189Z,11.60
2023-01-19T04:55:18.287Z,11.70
2023-01-19T04:56:18.463Z,11.50
2023-01-19T04:57:18.671Z,11.40
2023-01-19T04:58:18.801Z,11.10
2023-01-19T04:59:18.980Z,11.30
2023-01-19T05:00:19.150Z,11.30
2023-01-19T05:01:19.389Z,11.20
2023-01-19T05:02:19.493Z,11.50
2023-01-19T05:03:19.685Z,11.70
2023-01-19T05:04:19.843Z,10.70
2023-01-19T05:05:20.012Z,11.60
2023-01-19T05:06:20.201Z,11.00
2023-01-19T05:07:20.361Z,11.10
2023-01-19T05:08:20.546Z,12.20
2023-01-19T05:09:20.711Z,11.70
2023-01-19T05:10:20.877Z,11.60
2023-01-19T05:11:21.038Z,11.10
2023-01-19T05:12:21.221Z,11.10
2023-01-19T05:13:21.403Z,11.90
2023-01-19T05:14:21.572Z,11.30
2023-01-19T05:15:21.731Z,11.60
2023-01-19T05:16:21.984Z,11.40
2023-01-19T05:17:22.102Z,10.90
2023-01-19T05:18:22.240Z,11.60
2023-01-19T05:19:22.405Z,11.20
2023-01-19T05:20:22.578Z,11.70
2023-01-19T05:21:22.742Z,11.30
2023-01-19T05:22:22.942Z,11.10
2023-01-19T05:23:23.102Z,11.40
2023-01-19T05:24:23.265Z,11.00
2023-01-19T05:25:23.433Z,11.80
2023-01-19T05:26:23.603Z,11.20
2023-01-19T05:27:23.795Z,11.00
2023-01-19T05:28:23.956Z,10.50
2023-01-19T05:29:24.124Z,11.10
2023-01-19T05:30:24.336Z,11.00
2023-01-19T05:31:24.561Z,11.10
2023-01-19T05:32:24.660Z,11.50
2023-01-19T05:33:24.817Z,11.50
2023-01-19T05:34:25.003Z,11.80
2023-01-19T05:35:35.297Z,10.90
2023-01-19T05:36:26.356Z,11.30
2023-01-19T05:37:25.558Z,11.20
2023-01-19T05:38:34.512Z,11.00
2023-01-19T05:39:26.887Z,10.70
2023-01-19T05:40:26.081Z,12.30
2023-01-19T05:41:26.230Z,11.60
2023-01-19T05:42:26.412Z,11.60
2023-01-19T05:43:26.577Z,11.60
2023-01-19T05:44:26.753Z,12.20
2023-01-19T05:45:26.920Z,12.10
2023-01-19T05:46:27.142Z,11.60
2023-01-19T05:47:27.270Z,11.60
2023-01-19T05:48:27.452Z,11.40
2023-01-19T05:49:27.632Z,11.90
2023-01-19T05:50:27.826Z,11.90
2023-01-19T05:51:27.970Z,11.90
2023-01-19T05:52:28.154Z,12.00
2023-01-19T05:53:28.325Z,11.70
2023-01-19T05:54:28.499Z,11.10
2023-01-19T05:55:28.673Z,11.70
2023-01-19T05:56:28.841Z,11.90
2023-01-19T05:57:29.017Z,11.40
2023-01-19T05:58:29.203Z,11.00
2023-01-19T05:59:29.360Z,10.80
2023-01-19T06:00:29.515Z,11.80
2023-01-19T06:01:29.674Z,11.50
2023-01-19T06:02:29.889Z,11.80
2023-01-19T06:03:30.048Z,11.20
2023-01-19T06:04:30.204Z,11.20
2023-01-19T06:05:30.391Z,12.00
2023-01-19T06:06:30.570Z,11.30
2023-01-19T06:07:30.753Z,11.00
2023-01-19T06:08:30.932Z,11.70
2023-01-19T06:09:31.121Z,11.70
2023-01-19T06:10:31.263Z,11.80
2023-01-19T06:11:31.437Z,11.30
2023-01-19T06:12:31.610Z,11.40
2023-01-19T06:13:31.805Z,11.10
2023-01-19T06:14:31.976Z,11.70
2023-01-19T06:15:32.140Z,11.30
2023-01-19T06:16:32.368Z,11.40
2023-01-19T06:17:32.490Z,11.10
2023-01-19T06:18:32.664Z,11.20
2023-01-19T06:19:32.827Z,10.70
2023-01-19T06:20:32.997Z,11.60
2023-01-19T06:21:33.170Z,11.60
2023-01-19T06:22:33.358Z,11.10
2023-01-19T06:23:33.499Z,11.00
2023-01-19T06:24:33.679Z,11.20
2023-01-19T06:25:33.844Z,11.10
2023-01-19T06:26:34.008Z,11.00
2023-01-19T06:27:34.187Z,11.30
2023-01-19T06:28:34.337Z,11.40
2023-01-19T06:29:34.525Z,10.90
2023-01-19T06:30:34.728Z,10.70
2023-01-19T06:31:34.928Z,10.20
2023-01-19T06:32:35.051Z,10.80
2023-01-19T06:33:35.221Z,10.80
2023-01-19T06:34:35.388Z,10.80
2023-01-19T06:35:35.546Z,10.80
2023-01-19T06:36:35.729Z,5.80
2023-01-19T06:37:35.904Z,6.30
2023-01-19T06:38:36.069Z,7.10
2023-01-19T06:39:36.219Z,7.60
2023-01-19T06:40:36.378Z,7.80
2023-01-19T06:41:36.572Z,7.60
2023-01-19T06:42:36.760Z,7.50
2023-01-19T06:43:36.931Z,7.00
2023-01-19T06:44:37.088Z,7.10
2023-01-19T06:45:37.285Z,7.30
2023-01-19T06:46:37.451Z,6.90
2023-01-19T06:47:37.660Z,6.80
2023-01-19T06:48:37.849Z,7.20
2023-01-19T06:49:37.999Z,8.40
2023-01-19T06:50:38.201Z,8.70
2023-01-19T06:51:38.385Z,8.10
2023-01-19T06:52:38.571Z,8.40
2023-01-19T06:53:38.781Z,8.80
2023-01-19T06:54:38.943Z,8.80
2023-01-19T06:55:39.097Z,8.70
2023-01-19T06:56:39.267Z,9.40
2023-01-19T06:57:39.411Z,9.80
2023-01-19T06:58:39.598Z,9.10
2023-01-19T06:59:39.733Z,9.40
2023-01-19T07:00:39.912Z,9.10
2023-01-19T07:01:40.173Z,9.60
2023-01-19T07:02:40.329Z,9.50
2023-01-19T07:03:40.426Z,9.30
2023-01-19T07:04:40.625Z,9.80
2023-01-19T07:05:40.753Z,9.80
2023-01-19T07:06:40.932Z,9.70
2023-01-19T07:07:41.113Z,9.40
2023-01-19T07:08:41.313Z,10.20
2023-01-19T07:09:41.452Z,9.70
2023-01-19T07:11:26.171Z,9.90
2023-01-19T07:11:42.793Z,9.90
2023-01-19T07:12:41.986Z,9.60
2023-01-19T07:13:42.112Z,9.90
2023-01-19T07:14:42.288Z,10.60
2023-01-19T07:15:42.454Z,10.40
2023-01-19T07:16:42.746Z,9.70
2023-01-19T07:17:42.838Z,10.20
2023-01-19T07:18:42.975Z,10.00
2023-01-19T07:19:43.175Z,10.20
2023-01-19T07:20:43.323Z,10.10
2023-01-19T07:21:43.495Z,10.30
2023-01-19T07:22:43.695Z,9.70
2023-01-19T07:23:43.875Z,10.10
2023-01-19T07:24:44.056Z,9.50
2023-01-19T07:25:44.240Z,9.60
2023-01-19T07:26:44.418Z,9.80
2023-01-19T07:27:44.566Z,9.70
2023-01-19T07:28:46.785Z,9.80
2023-01-19T07:29:44.930Z,9.90
2023-01-19T07:30:45.139Z,9.60
2023-01-19T07:31:45.389Z,9.90
2023-01-19T07:32:45.436Z,10.00
2023-01-19T07:33:45.602Z,9.40
2023-01-19T07:34:45.811Z,10.40
2023-01-19T07:35:45.987Z,10.00
2023-01-19T07:36:46.169Z,9.30
2023-01-19T07:37:46.342Z,9.50
2023-01-19T07:38:46.500Z,9.30
2023-01-19T07:39:46.653Z,10.00
2023-01-19T07:40:46.839Z,9.70
2023-01-19T07:41:47.024Z,9.80
2023-01-19T07:42:47.247Z,9.20
2023-01-19T07:43:47.355Z,9.60
2023-01-19T07:44:47.528Z,9.50
2023-01-19T07:45:47.755Z,9.50
2023-01-19T07:46:47.883Z,9.90
2023-01-19T07:47:48.070Z,9.80
2023-01-19T07:48:48.238Z,9.70
2023-01-19T07:49:48.418Z,9.70
2023-01-19T07:50:48.593Z,9.30
2023-01-19T07:51:48.789Z,9.50
2023-01-19T07:52:48.952Z,9.80
2023-01-19T07:53:49.129Z,9.80
2023-01-19T07:54:49.350Z,9.70
2023-01-19T07:55:49.481Z,9.90
2023-01-19T07:56:49.661Z,10.00
2023-01-19T07:57:49.821Z,9.70
2023-01-19T07:58:50.063Z,9.40
2023-01-19T07:59:50.192Z,9.30
2023-01-19T08:00:50.468Z,10.10
2023-01-19T08:01:50.681Z,9.30
2023-01-19T08:02:50.690Z,9.80
2023-01-19T08:03:50.883Z,9.60
2023-01-19T08:04:51.059Z,9.30
2023-01-19T08:05:51.190Z,9.70
2023-01-19T08:06:51.362Z,9.80
2023-01-19T08:07:53.323Z,9.30
2023-01-19T08:08:51.703Z,9.00
2023-01-19T08:09:51.875Z,9.50
2023-01-19T08:10:52.052Z,9.40
2023-01-19T08:11:52.193Z,9.30
2023-01-19T08:12:52.374Z,8.90
2023-01-19T08:13:52.553Z,8.50
2023-01-19T08:14:52.792Z,9.00
2023-01-19T08:15:53.026Z,8.80
2023-01-19T08:16:53.064Z,9.00
2023-01-19T08:17:53.339Z,9.10
2023-01-19T08:18:53.420Z,8.60
2023-01-19T08:19:53.565Z,9.20
2023-01-19T08:20:53.734Z,8.30
2023-01-19T08:21:53.902Z,8.40
2023-01-19T08:22:54.075Z,8.60
2023-01-19T08:23:54.344Z,8.70
2023-01-19T08:24:54.438Z,8.70
2023-01-19T08:25:54.595Z,9.10
2023-01-19T08:26:54.756Z,8.30
2023-01-19T08:27:54.936Z,9.00
2023-01-19T08:28:55.119Z,9.10
2023-01-19T08:29:55.280Z,8.20
2023-01-19T08:30:55.593Z,8.50
2023-01-19T08:31:55.741Z,8.50
2023-01-19T08:32:55.799Z,8.70
2023-01-19T08:33:55.981Z,8.20
2023-01-19T08:34:56.156Z,8.10
2023-01-19T08:35:56.384Z,8.10
2023-01-19T08:36:56.495Z,8.40
2023-01-19T08:37:56.689Z,8.00
2023-01-19T08:38:56.858Z,7.60
2023-01-19T08:39:57.023Z,8.20
2023-01-19T08:40:57.176Z,8.20
2023-01-19T08:41:57.347Z,8.10
2023-01-19T08:42:57.540Z,8.30
2023-01-19T08:43:57.718Z,7.40
2023-01-19T08:44:58.663Z,8.30
2023-01-19T08:45:58.085Z,7.70
2023-01-19T08:46:58.222Z,7.80
2023-01-19T08:47:58.388Z,8.30
2023-01-19T08:48:58.559Z,8.00
2023-01-19T08:49:58.741Z,7.90
2023-01-19T08:50:58.920Z,7.80
2023-01-19T08:51:59.052Z,7.50
2023-01-19T08:52:59.672Z,8.30
2023-01-19T08:53:59.400Z,8.50
2023-01-19T08:54:59.569Z,9.80
2023-01-19T08:55:59.735Z,9.40
2023-01-19T08:56:59.899Z,9.00
2023-01-19T08:58:00.661Z,8.70
2023-01-19T08:59:09.298Z,8.90
2023-01-19T09:00:01.431Z,8.40
2023-01-19T09:01:02.593Z,7.80
2023-01-19T09:02:00.903Z,8.50
2023-01-19T09:03:01.478Z,7.80
2023-01-19T09:04:01.110Z,7.90
2023-01-19T09:05:01.281Z,7.80
2023-01-19T09:06:01.462Z,7.60
2023-01-19T09:07:01.642Z,7.80
2023-01-19T09:08:02.163Z,7.40
2023-01-19T09:09:01.985Z,8.00
2023-01-19T09:10:02.207Z,7.10
2023-01-19T09:11:02.331Z,6.70
2023-01-19T09:12:02.549Z,6.80
2023-01-19T09:13:02.704Z,7.10
2023-01-19T09:14:02.851Z,7.10
2023-01-19T09:15:03.025Z,7.00
2023-01-19T09:16:03.280Z,6.90
2023-01-19T09:17:03.375Z,4.90
2023-01-19T09:18:03.807Z,5.90
2023-01-19T09:19:03.716Z,6.20
2023-01-19T09:20:03.924Z,6.60
2023-01-19T09:21:04.092Z,9.50
2023-01-19T09:22:04.244Z,7.90
2023-01-19T09:23:04.438Z,6.90
2023-01-19T09:24:04.610Z,6.40
2023-01-19T09:25:04.782Z,6.90
2023-01-19T09:26:04.959Z,7.20
2023-01-19T09:27:05.141Z,6.60
2023-01-19T09:28:05.333Z,6.60
2023-01-19T09:29:05.485Z,6.40
2023-01-19T09:30:05.656Z,6.20
2023-01-19T09:31:05.908Z,6.40
2023-01-19T09:32:05.991Z,6.40
2023-01-19T09:33:06.161Z,6.30
2023-01-19T09:34:06.341Z,6.60
2023-01-19T09:35:06.522Z,5.90
2023-01-19T09:36:06.692Z,6.50
2023-01-19T09:37:06.867Z,6.10
2023-01-19T09:38:07.067Z,5.90
2023-01-19T09:39:07.228Z,5.30
2023-01-19T09:40:07.442Z,5.20
2023-01-19T09:41:07.568Z,5.40
2023-01-19T09:42:07.729Z,5.90
2023-01-19T09:43:07.932Z,5.50
2023-01-19T09:44:08.099Z,5.50
2023-01-19T09:45:08.338Z,6.00
2023-01-19T09:46:08.484Z,5.90
2023-01-19T09:47:08.594Z,5.30
2023-01-19T09:48:08.770Z,5.30
2023-01-19T09:49:08.962Z,6.10
2023-01-19T09:50:09.135Z,5.70
2023-01-19T09:51:09.311Z,6.60
2023-01-19T09:52:09.503Z,5.30
2023-01-19T09:53:09.660Z,5.80
2023-01-19T09:54:09.858Z,5.60
2023-01-19T09:55:09.998Z,5.60
2023-01-19T09:56:10.184Z,5.80
2023-01-19T09:57:10.320Z,6.10
2023-01-19T09:58:10.494Z,6.10
2023-01-19T09:59:10.686Z,6.10
2023-01-19T10:00:10.867Z,6.20
2023-01-19T10:01:11.164Z,5.80
2023-01-19T10:02:11.226Z,6.20
2023-01-19T10:03:11.462Z,6.10
2023-01-19T10:04:11.594Z,6.10
2023-01-19T10:05:11.756Z,6.40
2023-01-19T10:06:11.931Z,6.40
2023-01-19T10:07:12.054Z,5.70
2023-01-19T10:08:12.231Z,5.70
2023-01-19T10:09:12.395Z,5.80
2023-01-19T10:10:12.588Z,6.10
2023-01-19T10:11:12.724Z,6.30
2023-01-19T10:12:12.905Z,6.20
2023-01-19T10:13:13.065Z,6.50
2023-01-19T10:14:13.247Z,6.20
2023-01-19T10:15:13.452Z,6.60
2023-01-19T10:16:13.646Z,6.10
2023-01-19T10:17:13.752Z,5.10
2023-01-19T10:18:13.912Z,5.00
2023-01-19T10:19:14.077Z,5.40
2023-01-19T10:20:14.259Z,6.10
2023-01-19T10:21:14.402Z,5.70
2023-01-19T10:22:14.573Z,5.60
2023-01-19T10:23:14.756Z,5.80
2023-01-19T10:24:14.940Z,5.80
2023-01-19T10:25:15.119Z,5.70
2023-01-19T10:26:15.308Z,6.30
2023-01-19T10:27:15.460Z,5.70
2023-01-19T10:28:15.663Z,5.90
2023-01-19T10:29:15.822Z,6.20
2023-01-19T10:30:15.981Z,5.60
2023-01-19T10:31:16.309Z,6.20
2023-01-19T10:32:16.309Z,6.20
2023-01-19T10:33:16.501Z,5.90
2023-01-19T10:34:19.802Z,6.10
2023-01-19T10:35:17.834Z,6.20
2023-01-19T10:36:17.012Z,5.80
2023-01-19T10:37:17.199Z,6.00
2023-01-19T10:38:17.406Z,5.40
2023-01-19T10:39:17.552Z,6.10
2023-01-19T10:40:17.731Z,6.30
2023-01-19T10:41:17.876Z,5.80
2023-01-19T10:42:18.059Z,6.20
2023-01-19T10:43:18.213Z,6.20
2023-01-19T10:44:18.394Z,6.00
2023-01-19T10:45:18.601Z,5.60
2023-01-19T10:46:18.817Z,6.30
2023-01-19T10:47:18.960Z,6.30
2023-01-19T10:48:19.097Z,6.00
2023-01-19T10:49:19.295Z,5.30
2023-01-19T10:50:19.503Z,6.40
2023-01-19T10:51:19.699Z,5.60
2023-01-19T10:52:19.947Z,6.00
2023-01-19T10:53:20.062Z,6.50
2023-01-19T10:54:20.221Z,6.40
2023-01-19T10:55:20.340Z,6.50
2023-01-19T10:56:20.509Z,6.60
2023-01-19T10:57:20.699Z,6.10
2023-01-19T10:58:20.855Z,6.40
2023-01-19T10:59:21.029Z,6.10
2023-01-19T11:00:21.198Z,6.40
2023-01-19T11:01:21.481Z,5.80
2023-01-19T11:02:21.846Z,5.80
2023-01-19T11:03:21.719Z,6.20
2023-01-19T11:04:21.959Z,6.50
2023-01-19T11:05:22.087Z,6.60
2023-01-19T11:06:22.238Z,5.80
2023-01-19T11:07:22.389Z,5.70
2023-01-19T11:08:22.601Z,6.00
2023-01-19T11:09:22.713Z,6.00
2023-01-19T11:10:22.873Z,7.10
2023-01-19T11:11:23.066Z,7.00
2023-01-19T11:12:23.200Z,6.30
2023-01-19T11:13:23.362Z,5.70
2023-01-19T11:14:23.545Z,6.10
2023-01-19T11:15:23.709Z,6.30
2023-01-19T11:16:23.930Z,6.20
2023-01-19T11:17:24.048Z,6.10
2023-01-19T11:18:24.250Z,6.30
2023-01-19T11:19:24.412Z,6.40
2023-01-19T11:20:24.654Z,6.50
2023-01-19T11:21:25.919Z,5.90
2023-01-19T11:22:24.945Z,6.10
2023-01-19T11:23:25.140Z,6.20
2023-01-19T11:24:25.295Z,5.90
2023-01-19T11:25:25.502Z,6.20
2023-01-19T11:26:25.663Z,5.60
2023-01-19T11:27:25.829Z,5.70
2023-01-19T11:28:26.009Z,5.90
2023-01-19T11:29:26.192Z,6.00
2023-01-19T11:30:26.400Z,5.40
2023-01-19T11:31:26.628Z,6.20
2023-01-19T11:32:26.685Z,5.80
2023-01-19T11:33:26.899Z,6.00
2023-01-19T11:34:27.035Z,5.90
2023-01-19T11:35:27.250Z,6.10
2023-01-19T11:36:27.390Z,5.80
2023-01-19T11:37:27.556Z,5.50
2023-01-19T11:38:27.744Z,5.70
2023-01-19T11:39:27.960Z,6.20
2023-01-19T11:40:28.087Z,6.00
2023-01-19T11:41:28.269Z,5.50
2023-01-19T11:42:28.447Z,5.50
2023-01-19T11:43:36.620Z,5.70
2023-01-19T11:44:29.792Z,5.70
2023-01-19T11:45:29.022Z,4.80
2023-01-19T11:46:29.135Z,5.30
2023-01-19T11:47:29.306Z,5.30
2023-01-19T11:48:29.505Z,5.30
2023-01-19T11:49:29.672Z,5.50
2023-01-19T11:50:29.821Z,5.40
2023-01-19T11:51:29.991Z,4.90
2023-01-19T11:52:30.178Z,4.90
2023-01-19T11:53:30.332Z,5.10
2023-01-19T11:54:30.510Z,4.70
2023-01-19T11:55:30.683Z,5.30
2023-01-19T11:56:30.856Z,3.70
2023-01-19T11:57:31.059Z,4.10
2023-01-19T11:58:31.189Z,3.20
2023-01-19T11:59:31.356Z,2.70
2023-01-19T12:00:31.524Z,3.40
2023-01-19T12:01:31.685Z,3.30
2023-01-19T12:02:31.932Z,4.00
2023-01-19T12:03:32.038Z,4.30
2023-01-19T12:04:32.185Z,5.20
2023-01-19T12:05:32.357Z,5.00
2023-01-19T12:06:32.522Z,5.10
2023-01-19T12:07:32.697Z,5.00
2023-01-19T12:08:32.886Z,5.10
2023-01-19T12:09:33.045Z,6.00
2023-01-19T12:10:33.227Z,3.60
2023-01-19T12:11:33.410Z,4.80
2023-01-19T12:12:33.604Z,4.80
2023-01-19T12:13:33.744Z,5.70
2023-01-19T12:14:33.945Z,5.30
2023-01-19T12:15:34.119Z,5.00
2023-01-19T12:16:34.340Z,4.30
2023-01-19T12:17:34.458Z,5.20
2023-01-19T12:18:34.640Z,5.20
2023-01-19T12:19:34.811Z,5.00
2023-01-19T12:20:34.999Z,4.80
2023-01-19T12:21:35.190Z,4.70
2023-01-19T12:22:35.369Z,5.00
2023-01-19T12:23:35.519Z,5.10
2023-01-19T12:24:35.760Z,4.60
2023-01-19T12:25:35.916Z,5.30
2023-01-19T12:26:36.075Z,5.00
2023-01-19T12:27:36.252Z,4.80
2023-01-19T12:28:36.416Z,5.00
2023-01-19T12:29:36.594Z,4.90
2023-01-19T12:30:36.823Z,4.80
2023-01-19T12:31:37.007Z,4.50
2023-01-19T12:32:37.152Z,5.10
2023-01-19T12:33:37.348Z,5.30
2023-01-19T12:34:37.507Z,4.80
2023-01-19T12:35:37.676Z,4.90
2023-01-19T12:36:37.854Z,5.30
2023-01-19T12:37:38.054Z,5.30
2023-01-19T12:38:38.194Z,4.90
2023-01-19T12:39:38.396Z,4.70
2023-01-19T12:40:38.557Z,5.10
2023-01-19T12:41:38.741Z,5.10
2023-01-19T12:42:38.878Z,4.90
2023-01-19T12:43:39.083Z,4.90
2023-01-19T12:44:39.266Z,4.80
2023-01-19T12:45:39.427Z,5.40
2023-01-19T12:46:39.610Z,5.40
2023-01-19T12:47:39.769Z,5.30
2023-01-19T12:48:39.952Z,5.00
2023-01-19T12:49:40.112Z,5.00
2023-01-19T12:50:40.303Z,5.30
2023-01-19T12:51:40.473Z,5.20
2023-01-19T12:52:40.652Z,5.10
2023-01-19T12:53:40.843Z,5.00
2023-01-19T12:54:41.000Z,4.90
2023-01-19T12:55:41.180Z,5.60
2023-01-19T12:56:41.367Z,5.20
2023-01-19T12:57:41.537Z,5.10
2023-01-19T12:58:41.711Z,5.20
2023-01-19T12:59:41.876Z,5.00
2023-01-19T13:00:42.066Z,5.20
2023-01-19T13:01:42.330Z,4.70
2023-01-19T13:02:42.447Z,4.60
2023-01-19T13:03:42.583Z,4.70
2023-01-19T13:04:42.753Z,4.70
2023-01-19T13:05:42.943Z,5.10
2023-01-19T13:06:43.136Z,4.80
2023-01-19T13:07:43.282Z,4.70
2023-01-19T13:08:43.456Z,5.00
2023-01-19T13:09:43.650Z,5.20
2023-01-19T13:10:43.818Z,4.90